createdAt,value
2018-10-07T00:00:37.641Z,11.40
2018-10-07T00:03:06.083Z,11.40
2018-10-07T00:05:34.526Z,11.40
2018-10-07T00:08:02.872Z,11.30
2018-10-07T00:10:34.548Z,11.40
2018-10-07T00:13:02.872Z,11.30
2018-10-07T00:15:31.276Z,11.30
2018-10-07T00:18:01.596Z,11.30
2018-10-07T00:20:29.921Z,11.20
2018-10-07T00:22:58.240Z,11.20
2018-10-07T00:25:26.708Z,11.20
2018-10-07T00:27:55.014Z,11.30
2018-10-07T00:30:23.781Z,11.30
2018-10-07T00:32:52.135Z,11.30
2018-10-07T00:35:20.568Z,11.30
2018-10-07T00:37:48.878Z,11.40
2018-10-07T00:40:17.645Z,11.30
2018-10-07T00:42:46.013Z,11.30
2018-10-07T00:45:14.324Z,11.30
2018-10-07T00:47:42.782Z,11.20
2018-10-07T00:50:11.085Z,11.20
2018-10-07T00:52:39.394Z,11.20
2018-10-07T00:55:07.793Z,11.00
2018-10-07T00:57:36.102Z,10.90
2018-10-07T01:00:05.333Z,10.80
2018-10-07T01:02:33.657Z,10.70
2018-10-07T01:05:02.002Z,10.70
2018-10-07T01:07:30.308Z,10.70
2018-10-07T01:09:58.917Z,10.70
2018-10-07T01:12:27.477Z,10.70
2018-10-07T01:14:55.794Z,10.80
2018-10-07T01:17:24.290Z,10.80
2018-10-07T01:19:52.630Z,10.70
2018-10-07T01:22:21.533Z,10.60
2018-10-07T01:24:49.920Z,10.60
2018-10-07T01:27:18.476Z,10.60
2018-10-07T01:29:46.796Z,10.70
2018-10-07T01:32:15.145Z,10.80
2018-10-07T01:34:43.483Z,10.80
2018-10-07T01:37:11.808Z,10.70
2018-10-07T01:39:40.480Z,10.60
2018-10-07T01:42:08.804Z,10.60
2018-10-07T01:44:37.148Z,10.60
2018-10-07T01:47:06.133Z,10.60
2018-10-07T01:49:34.542Z,10.50
2018-10-07T01:52:02.849Z,10.60
2018-10-07T01:54:31.218Z,10.70
2018-10-07T01:56:59.540Z,10.80
2018-10-07T01:59:28.188Z,10.80
2018-10-07T02:01:56.527Z,10.80
2018-10-07T02:04:24.949Z,10.60
2018-10-07T02:06:53.267Z,10.60
2018-10-07T02:09:22.255Z,10.70
2018-10-07T02:11:50.609Z,10.80
2018-10-07T02:14:19.086Z,10.90
2018-10-07T02:16:47.433Z,10.90
2018-10-07T02:19:15.733Z,10.80
2018-10-07T02:21:44.062Z,10.80
2018-10-07T02:24:12.730Z,10.80
2018-10-07T02:26:41.044Z,10.90
2018-10-07T02:29:09.364Z,10.90
2018-10-07T02:31:37.769Z,11.00
2018-10-07T02:34:06.301Z,11.00
2018-10-07T02:36:34.646Z,11.00
2018-10-07T02:39:03.085Z,10.90
2018-10-07T02:41:31.448Z,10.90
2018-10-07T02:43:59.744Z,10.80
2018-10-07T02:46:28.336Z,10.80
2018-10-07T02:48:56.738Z,10.70
2018-10-07T02:51:25.324Z,10.50
2018-10-07T02:53:53.673Z,10.40
2018-10-07T02:56:22.262Z,10.40
2018-10-07T02:58:50.696Z,10.30
2018-10-07T03:01:19.301Z,10.20
2018-10-07T03:03:47.652Z,10.30
2018-10-07T03:06:16.412Z,10.30
2018-10-07T03:08:45.005Z,10.30
2018-10-07T03:11:13.301Z,10.20
2018-10-07T03:13:41.607Z,10.20
2018-10-07T03:16:09.954Z,10.10
2018-10-07T03:18:38.274Z,10.10
2018-10-07T03:21:06.688Z,10.10
2018-10-07T03:23:35.049Z,10.10
2018-10-07T03:26:03.520Z,10.10
2018-10-07T03:28:31.921Z,10.00
2018-10-07T03:31:00.276Z,10.00
2018-10-07T03:33:28.723Z,10.00
2018-10-07T03:35:57.114Z,9.90
2018-10-07T03:38:25.913Z,9.80
2018-10-07T03:40:54.305Z,9.80
2018-10-07T03:43:22.644Z,9.70
2018-10-07T03:45:51.032Z,9.70
2018-10-07T03:48:19.330Z,9.80
2018-10-07T03:50:47.722Z,9.70
2018-10-07T03:53:16.073Z,9.60
2018-10-07T03:55:44.380Z,9.50
2018-10-07T03:58:12.738Z,9.40
2018-10-07T04:00:41.104Z,9.40
2018-10-07T04:03:09.421Z,9.30
2018-10-07T04:05:37.749Z,9.30
2018-10-07T04:08:06.181Z,9.20
2018-10-07T04:10:34.489Z,9.20
2018-10-07T04:13:03.373Z,9.10
2018-10-07T04:15:31.740Z,9.10
2018-10-07T04:18:00.045Z,9.10
2018-10-07T04:20:29.501Z,9.20
2018-10-07T04:22:57.860Z,9.30
2018-10-07T04:25:26.498Z,9.30
2018-10-07T04:27:54.824Z,9.30
2018-10-07T04:30:23.502Z,9.20
2018-10-07T04:32:51.965Z,9.00
2018-10-07T04:35:20.360Z,8.90
2018-10-07T04:37:48.686Z,8.80
2018-10-07T04:40:17.034Z,8.60
2018-10-07T04:42:45.353Z,8.60
2018-10-07T04:45:13.722Z,8.70
2018-10-07T04:47:42.036Z,8.60
2018-10-07T04:50:10.380Z,8.70
2018-10-07T04:52:38.797Z,8.70
2018-10-07T04:55:07.145Z,8.70
2018-10-07T04:57:35.460Z,8.70
2018-10-07T05:00:03.907Z,8.60
2018-10-07T05:02:32.759Z,8.50
2018-10-07T05:05:01.107Z,8.70
2018-10-07T05:07:29.986Z,8.50
2018-10-07T05:10:09.836Z,8.40
2018-10-07T05:12:38.297Z,8.30
2018-10-07T05:15:07.543Z,8.40
2018-10-07T05:17:37.189Z,8.30
2018-10-07T05:20:05.940Z,8.30
2018-10-07T05:22:34.356Z,8.40
2018-10-07T05:25:02.665Z,8.30
2018-10-07T05:27:32.340Z,8.30
2018-10-07T05:30:00.697Z,8.30
2018-10-07T05:32:29.122Z,8.40
2018-10-07T05:34:57.536Z,8.40
2018-10-07T05:37:25.869Z,8.40
2018-10-07T05:39:54.152Z,8.40
2018-10-07T05:42:22.529Z,8.30
2018-10-07T05:44:50.896Z,8.30
2018-10-07T05:47:19.182Z,8.30
2018-10-07T05:49:47.532Z,8.30
2018-10-07T05:52:15.882Z,8.20
2018-10-07T05:54:44.181Z,8.10
2018-10-07T05:57:12.524Z,8.10
2018-10-07T05:59:41.373Z,8.20
2018-10-07T06:02:09.819Z,8.30
2018-10-07T06:04:59.066Z,8.40
2018-10-07T06:07:28.370Z,8.60
2018-10-07T06:09:56.672Z,8.70
2018-10-07T06:12:25.365Z,8.90
2018-10-07T06:15:04.957Z,9.00
2018-10-07T06:17:33.397Z,9.10
2018-10-07T06:20:01.700Z,9.30
2018-10-07T06:22:30.254Z,9.50
2018-10-07T06:24:58.665Z,9.80
2018-10-07T06:27:27.141Z,10.20
2018-10-07T06:29:55.448Z,10.90
2018-10-07T06:32:23.793Z,11.40
2018-10-07T06:34:52.172Z,11.80
2018-10-07T06:37:20.480Z,12.40
2018-10-07T06:39:48.847Z,13.20
2018-10-07T06:42:17.232Z,14.40
2018-10-07T06:44:45.517Z,15.60
2018-10-07T06:47:13.861Z,16.50
2018-10-07T06:49:42.157Z,17.30
2018-10-07T06:52:10.553Z,17.70
2018-10-07T06:54:38.889Z,18.00
2018-10-07T06:57:07.213Z,18.40
2018-10-07T06:59:35.648Z,18.20
2018-10-07T07:02:04.013Z,18.00
2018-10-07T07:04:32.398Z,18.20
2018-10-07T07:07:00.689Z,18.50
2018-10-07T07:09:29.136Z,18.70
2018-10-07T07:11:57.548Z,18.80
2018-10-07T07:14:26.025Z,18.40
2018-10-07T07:16:54.342Z,18.00
2018-10-07T07:19:22.658Z,18.10
2018-10-07T07:21:50.949Z,17.50
2018-10-07T07:24:19.276Z,17.00
2018-10-07T07:26:47.594Z,16.70
2018-10-07T07:29:15.933Z,16.70
2018-10-07T07:31:44.256Z,16.90
2018-10-07T07:34:12.572Z,17.20
2018-10-07T07:36:45.993Z,17.20
2018-10-07T07:39:14.925Z,17.30
2018-10-07T07:41:43.204Z,17.40
2018-10-07T07:44:11.522Z,17.20
2018-10-07T07:46:39.810Z,16.90
2018-10-07T07:49:08.197Z,16.90
2018-10-07T07:51:36.581Z,16.90
2018-10-07T07:54:04.900Z,16.80
2018-10-07T07:56:33.433Z,16.70
2018-10-07T07:59:01.772Z,16.60
2018-10-07T08:01:30.104Z,16.60
2018-10-07T08:03:58.393Z,16.50
2018-10-07T08:06:26.965Z,16.40
2018-10-07T08:08:55.401Z,16.60
2018-10-07T08:11:23.918Z,16.90
2018-10-07T08:13:52.236Z,16.90
2018-10-07T08:16:20.529Z,17.00
2018-10-07T08:18:48.817Z,16.90
2018-10-07T08:21:17.169Z,16.90
2018-10-07T08:23:45.465Z,17.00
2018-10-07T08:26:13.769Z,16.80
2018-10-07T08:28:42.118Z,16.60
2018-10-07T08:31:10.418Z,16.50
2018-10-07T08:33:38.879Z,16.50
2018-10-07T08:36:07.822Z,16.40
2018-10-07T08:38:36.621Z,16.30
2018-10-07T08:41:05.032Z,16.20
2018-10-07T08:43:33.649Z,15.90
2018-10-07T08:46:05.818Z,15.80
2018-10-07T08:48:45.749Z,15.90
2018-10-07T08:51:19.477Z,15.90
2018-10-07T08:53:53.859Z,15.70
2018-10-07T08:56:27.896Z,15.70
2018-10-07T08:59:00.890Z,15.80
2018-10-07T09:02:04.953Z,15.90
2018-10-07T09:04:35.176Z,15.90
2018-10-07T09:07:05.501Z,16.10
2018-10-07T09:09:39.530Z,16.10
2018-10-07T09:12:16.828Z,16.10
2018-10-07T09:15:01.736Z,16.20
2018-10-07T09:17:47.848Z,16.20
2018-10-07T09:20:26.616Z,16.30
2018-10-07T09:23:17.253Z,16.20
2018-10-07T09:25:50.700Z,16.50
2018-10-07T09:28:23.680Z,16.50
2018-10-07T09:30:52.739Z,16.60
2018-10-07T09:33:34.980Z,16.80
2018-10-07T09:36:19.726Z,16.60
2018-10-07T09:39:00.410Z,16.50
2018-10-07T09:41:51.871Z,16.30
2018-10-07T09:45:06.764Z,16.30
2018-10-07T09:48:02.340Z,16.40
2018-10-07T09:51:02.135Z,16.60
2018-10-07T09:57:09.552Z,16.80
2018-10-07T09:59:38.312Z,16.80
2018-10-07T10:02:06.633Z,16.70
2018-10-07T10:04:35.025Z,16.70
2018-10-07T10:07:03.318Z,16.50
2018-10-07T10:09:31.646Z,16.40
2018-10-07T10:11:59.933Z,16.50
2018-10-07T10:14:28.281Z,16.40
2018-10-07T10:17:00.379Z,16.30
2018-10-07T10:19:34.827Z,16.20
2018-10-07T10:22:14.685Z,16.10
2018-10-07T10:24:52.476Z,16.00
2018-10-07T10:29:31.966Z,16.00
2018-10-07T10:32:10.025Z,16.00
2018-10-07T10:34:46.182Z,15.80
2018-10-07T10:37:18.632Z,15.70
2018-10-07T10:39:53.496Z,15.70
2018-10-07T10:42:58.741Z,15.60
2018-10-07T10:45:37.196Z,15.60
2018-10-07T10:49:17.577Z,15.60
2018-10-07T10:51:51.957Z,15.50
2018-10-07T10:54:28.243Z,15.30
2018-10-07T10:57:07.496Z,15.30
2018-10-07T10:59:44.345Z,15.20
2018-10-07T11:02:27.864Z,15.30
2018-10-07T11:05:14.613Z,15.20
2018-10-07T11:07:56.270Z,15.30
2018-10-07T11:10:45.269Z,15.30
2018-10-07T11:13:25.725Z,15.20
2018-10-07T11:16:06.560Z,15.20
2018-10-07T11:18:49.138Z,15.00
2018-10-07T11:22:01.918Z,14.90
2018-10-07T11:24:57.053Z,14.70
2018-10-07T11:27:34.289Z,14.50
2018-10-07T11:32:25.613Z,14.10
2018-10-07T11:38:12.781Z,14.00
2018-10-07T11:41:07.245Z,13.70
2018-10-07T11:43:54.198Z,13.40
2018-10-07T11:46:35.414Z,13.30
2018-10-07T11:49:08.244Z,13.30
2018-10-07T11:52:20.946Z,13.40
2018-10-07T11:54:59.530Z,13.40
2018-10-07T11:57:28.465Z,13.60
2018-10-07T11:59:57.352Z,13.70
2018-10-07T12:02:25.845Z,13.90
2018-10-07T12:04:54.491Z,14.20
2018-10-07T12:07:23.361Z,14.30
2018-10-07T12:09:52.357Z,14.30
2018-10-07T12:12:20.700Z,14.50
2018-10-07T12:14:49.042Z,14.50
2018-10-07T12:17:17.389Z,14.50
2018-10-07T12:19:46.053Z,14.50
2018-10-07T12:22:14.376Z,14.30
2018-10-07T12:24:42.776Z,14.10
2018-10-07T12:27:11.689Z,14.00
2018-10-07T12:29:40.376Z,13.80
2018-10-07T12:32:09.394Z,13.70
2018-10-07T12:34:37.912Z,13.60
2018-10-07T12:37:06.445Z,13.60
2018-10-07T12:39:35.530Z,13.60
2018-10-07T12:42:04.146Z,13.60
2018-10-07T12:44:32.552Z,13.60
2018-10-07T12:47:00.884Z,13.60
2018-10-07T12:49:29.358Z,13.50
2018-10-07T12:51:57.714Z,13.50
2018-10-07T12:54:26.269Z,13.70
2018-10-07T12:56:54.588Z,13.80
2018-10-07T12:59:22.930Z,13.70
2018-10-07T13:01:51.283Z,13.70
2018-10-07T13:04:19.622Z,13.70
2018-10-07T13:06:47.953Z,13.60
2018-10-07T13:09:16.314Z,13.60
2018-10-07T13:11:44.776Z,13.40
2018-10-07T13:14:13.098Z,13.40
2018-10-07T13:16:41.482Z,13.30
2018-10-07T13:19:09.943Z,13.20
2018-10-07T13:21:38.397Z,13.20
2018-10-07T13:24:06.844Z,13.30
2018-10-07T13:26:35.193Z,13.20
2018-10-07T13:29:03.664Z,13.10
2018-10-07T13:31:32.025Z,12.90
2018-10-07T13:34:00.358Z,12.90
2018-10-07T13:36:28.735Z,12.90
2018-10-07T13:38:57.089Z,12.90
2018-10-07T13:41:25.437Z,12.90
2018-10-07T13:43:53.893Z,12.90
2018-10-07T13:46:22.230Z,12.90
2018-10-07T13:48:50.799Z,12.90
2018-10-07T13:51:19.138Z,12.90
2018-10-07T13:53:47.564Z,12.90
2018-10-07T13:56:16.274Z,13.00
2018-10-07T13:58:44.604Z,13.00
2018-10-07T14:01:13.003Z,13.00
2018-10-07T14:03:41.413Z,13.00
2018-10-07T14:06:10.121Z,13.00
2018-10-07T14:08:38.776Z,13.00
2018-10-07T14:11:07.153Z,12.90
2018-10-07T14:13:35.463Z,12.70
2018-10-07T14:16:04.090Z,12.70
2018-10-07T14:18:32.416Z,12.60
2018-10-07T14:21:00.965Z,12.60
2018-10-07T14:23:29.389Z,12.60
2018-10-07T14:25:57.736Z,12.60
2018-10-07T14:28:26.069Z,12.50
2018-10-07T14:30:54.582Z,12.60
2018-10-07T14:33:22.976Z,12.40
2018-10-07T14:35:51.376Z,12.30
2018-10-07T14:38:19.737Z,12.30
2018-10-07T14:40:48.104Z,12.20
2018-10-07T14:43:16.412Z,12.10
2018-10-07T14:45:44.771Z,12.00
2018-10-07T14:48:13.110Z,11.90
2018-10-07T14:50:41.440Z,11.90
2018-10-07T14:53:09.813Z,11.90
2018-10-07T14:55:38.180Z,11.80
2018-10-07T14:58:06.856Z,11.50
2018-10-07T15:00:35.236Z,11.30
2018-10-07T15:03:03.616Z,11.10
2018-10-07T15:05:31.961Z,11.10
2018-10-07T15:08:00.346Z,11.20
2018-10-07T15:10:28.686Z,11.20
2018-10-07T15:12:57.014Z,11.10
2018-10-07T15:15:25.366Z,11.00
2018-10-07T15:17:53.806Z,11.00
2018-10-07T15:20:22.195Z,11.10
2018-10-07T15:22:50.576Z,11.00
2018-10-07T15:25:18.890Z,10.80
2018-10-07T15:27:47.305Z,10.80
2018-10-07T15:30:15.937Z,10.70
2018-10-07T15:32:44.249Z,10.60
2018-10-07T15:35:12.566Z,10.60
2018-10-07T15:37:41.039Z,10.60
2018-10-07T15:40:09.392Z,10.70
2018-10-07T15:42:37.832Z,10.60
2018-10-07T15:45:06.265Z,10.70
2018-10-07T15:47:34.643Z,10.60
2018-10-07T15:50:02.941Z,10.70
2018-10-07T15:52:31.401Z,10.70
2018-10-07T15:54:59.736Z,10.60
2018-10-07T15:57:28.053Z,10.50
2018-10-07T15:59:56.437Z,10.40
2018-10-07T16:02:24.768Z,10.40
2018-10-07T16:04:53.130Z,10.40
2018-10-07T16:07:21.492Z,10.40
2018-10-07T16:09:49.876Z,10.30
2018-10-07T16:12:18.190Z,10.20
2018-10-07T16:14:46.674Z,10.30
2018-10-07T16:17:14.997Z,10.20
2018-10-07T16:19:43.710Z,10.30
2018-10-07T16:22:12.212Z,10.20
2018-10-07T16:24:41.123Z,10.10
2018-10-07T16:27:09.870Z,10.10
2018-10-07T16:29:38.256Z,10.10
2018-10-07T16:32:06.674Z,10.10
2018-10-07T16:34:35.020Z,10.10
2018-10-07T16:37:03.409Z,10.10
2018-10-07T16:39:31.735Z,10.00
2018-10-07T16:42:00.071Z,9.90
2018-10-07T16:44:28.441Z,9.90
2018-10-07T16:46:56.787Z,10.00
2018-10-07T16:49:25.246Z,9.90
2018-10-07T16:51:53.655Z,9.90
2018-10-07T16:54:22.109Z,9.90
2018-10-07T16:56:50.417Z,9.90
2018-10-07T16:59:18.798Z,9.90
2018-10-07T17:01:47.675Z,9.90
2018-10-07T17:04:15.997Z,9.90
2018-10-07T17:06:44.395Z,9.90
2018-10-07T17:09:12.696Z,9.90
2018-10-07T17:11:41.031Z,9.80
2018-10-07T17:14:09.393Z,9.80
2018-10-07T17:16:37.693Z,9.80
2018-10-07T17:19:06.310Z,9.80
2018-10-07T17:21:34.925Z,9.70
2018-10-07T17:24:03.259Z,9.70
2018-10-07T17:26:31.836Z,9.70
2018-10-07T17:29:00.172Z,9.60
2018-10-07T17:31:28.494Z,9.60
2018-10-07T17:33:56.781Z,9.60
2018-10-07T17:36:25.101Z,9.60
2018-10-07T17:38:53.388Z,9.60
2018-10-07T17:41:21.754Z,9.50
2018-10-07T17:43:50.100Z,9.50
2018-10-07T17:46:18.382Z,9.40
2018-10-07T17:48:46.777Z,9.40
2018-10-07T17:51:15.061Z,9.40
2018-10-07T17:53:43.363Z,9.40
2018-10-07T17:56:11.685Z,9.50
2018-10-07T17:58:40.174Z,9.40
2018-10-07T18:01:08.463Z,9.40
2018-10-07T18:03:36.861Z,9.30
2018-10-07T18:06:05.189Z,9.40
2018-10-07T18:08:33.506Z,9.40
2018-10-07T18:11:02.676Z,9.40
2018-10-07T18:13:31.004Z,9.40
2018-10-07T18:15:59.301Z,9.40
2018-10-07T18:18:27.596Z,9.40
2018-10-07T18:20:55.914Z,9.40
2018-10-07T18:23:24.201Z,9.30
2018-10-07T18:25:59.117Z,9.40
2018-10-07T18:28:27.401Z,9.30
2018-10-07T18:30:55.721Z,9.20
2018-10-07T18:33:24.108Z,9.10
2018-10-07T18:35:52.397Z,9.10
2018-10-07T18:38:20.685Z,9.10
2018-10-07T18:40:49.016Z,9.10
2018-10-07T18:43:17.377Z,9.20
2018-10-07T18:45:45.620Z,9.20
2018-10-07T18:48:13.934Z,9.10
2018-10-07T18:50:42.613Z,9.10
2018-10-07T18:53:10.899Z,9.00
2018-10-07T18:55:39.217Z,9.10
2018-10-07T18:58:07.513Z,9.00
2018-10-07T19:00:35.820Z,9.00
2018-10-07T19:03:04.237Z,9.00
2018-10-07T19:05:32.436Z,8.90
2018-10-07T19:08:00.730Z,8.90
2018-10-07T19:10:29.052Z,8.90
2018-10-07T19:12:57.361Z,8.80
2018-10-07T19:15:25.660Z,8.90
2018-10-07T19:17:53.975Z,8.90
2018-10-07T19:20:22.261Z,8.90
2018-10-07T19:22:50.557Z,8.90
2018-10-07T19:25:18.887Z,8.90
2018-10-07T19:27:47.387Z,9.00
2018-10-07T19:30:15.681Z,8.80
2018-10-07T19:32:44.017Z,8.90
2018-10-07T19:35:12.361Z,8.80
2018-10-07T19:37:40.646Z,8.90
2018-10-07T19:40:08.972Z,9.00
2018-10-07T19:42:37.284Z,9.00
2018-10-07T19:45:05.582Z,9.00
2018-10-07T19:47:33.909Z,9.00
2018-10-07T19:50:02.201Z,8.90
2018-10-07T19:52:30.639Z,8.90
2018-10-07T19:55:05.517Z,8.90
2018-10-07T19:57:33.812Z,8.80
2018-10-07T20:00:02.111Z,8.80
2018-10-07T20:02:30.449Z,8.90
2018-10-07T20:04:58.853Z,9.00
2018-10-07T20:07:27.133Z,9.00
2018-10-07T20:09:55.471Z,8.90
2018-10-07T20:12:23.760Z,8.80
2018-10-07T20:14:52.045Z,8.70
2018-10-07T20:17:20.392Z,8.70
2018-10-07T20:19:48.799Z,8.80
2018-10-07T20:22:17.840Z,8.70
2018-10-07T20:24:46.182Z,8.80
2018-10-07T20:27:14.469Z,8.80
2018-10-07T20:29:42.860Z,8.80
2018-10-07T20:32:11.344Z,8.90
2018-10-07T20:34:39.629Z,8.80
2018-10-07T20:37:07.957Z,8.80
2018-10-07T20:39:36.285Z,8.80
2018-10-07T20:42:04.602Z,8.80
2018-10-07T20:44:32.985Z,8.90
2018-10-07T20:47:01.337Z,9.00
2018-10-07T20:49:29.633Z,9.00
2018-10-07T20:51:58.141Z,8.80
2018-10-07T20:54:26.819Z,8.80
2018-10-07T20:56:55.381Z,8.80
2018-10-07T20:59:23.728Z,8.90
2018-10-07T21:01:52.211Z,9.00
2018-10-07T21:04:20.584Z,8.90
2018-10-07T21:06:49.145Z,8.80
2018-10-07T21:09:17.488Z,8.90
2018-10-07T21:11:45.808Z,9.00
2018-10-07T21:14:14.096Z,9.00
2018-10-07T21:16:42.525Z,9.00
2018-10-07T21:19:10.800Z,9.00
2018-10-07T21:21:39.137Z,9.10
2018-10-07T21:24:07.939Z,9.00
2018-10-07T21:26:36.280Z,9.00
2018-10-07T21:29:04.600Z,9.00
2018-10-07T21:31:32.916Z,9.00
2018-10-07T21:34:01.309Z,9.00
2018-10-07T21:36:29.611Z,9.10
2018-10-07T21:38:58.183Z,9.10
2018-10-07T21:41:26.505Z,9.10
2018-10-07T21:43:55.187Z,9.10
2018-10-07T21:46:23.563Z,9.10
2018-10-07T21:48:52.024Z,9.10
2018-10-07T21:51:21.301Z,9.00
2018-10-07T21:53:49.717Z,9.10
2018-10-07T21:56:18.006Z,9.00
2018-10-07T21:58:46.288Z,9.00
2018-10-07T22:01:14.669Z,9.00
2018-10-07T22:03:42.958Z,9.00
2018-10-07T22:06:11.258Z,9.00
2018-10-07T22:08:39.952Z,9.00
2018-10-07T22:11:08.236Z,9.00
2018-10-07T22:13:36.521Z,9.00
2018-10-07T22:16:05.129Z,9.00
2018-10-07T22:18:33.421Z,9.00
2018-10-07T22:21:01.914Z,9.00
2018-10-07T22:23:30.233Z,9.00
2018-10-07T22:25:58.705Z,9.00
2018-10-07T22:28:27.013Z,9.00
2018-10-07T22:30:55.432Z,9.00
2018-10-07T22:33:23.721Z,9.00
2018-10-07T22:35:52.165Z,9.00
2018-10-07T22:38:20.577Z,9.00
2018-10-07T22:40:48.949Z,9.00
2018-10-07T22:43:17.316Z,9.00
2018-10-07T22:45:45.874Z,9.00
2018-10-07T22:48:14.189Z,8.90
2018-10-07T22:50:42.570Z,8.90
2018-10-07T22:53:10.944Z,8.90
2018-10-07T22:55:39.356Z,8.90
2018-10-07T22:58:08.021Z,8.90
2018-10-07T23:00:36.408Z,9.00
2018-10-07T23:03:04.847Z,9.00
2018-10-07T23:05:33.160Z,9.00
2018-10-07T23:08:02.020Z,9.00
2018-10-07T23:10:30.884Z,8.90
2018-10-07T23:12:59.381Z,8.90
2018-10-07T23:15:27.711Z,9.00
2018-10-07T23:17:56.013Z,9.00
2018-10-07T23:20:24.320Z,9.00
2018-10-07T23:22:52.809Z,8.90
2018-10-07T23:25:21.191Z,8.90
2018-10-07T23:27:49.517Z,8.90
2018-10-07T23:30:17.861Z,8.90
2018-10-07T23:32:46.153Z,8.90
2018-10-07T23:35:14.453Z,8.90
2018-10-07T23:37:43.051Z,8.90
2018-10-07T23:40:11.377Z,8.90
2018-10-07T23:42:39.685Z,9.00
2018-10-07T23:45:08.061Z,9.00
2018-10-07T23:47:36.397Z,9.00
2018-10-07T23:50:04.733Z,9.00
2018-10-07T23:52:33.069Z,9.10
2018-10-07T23:55:01.447Z,9.00
2018-10-07T23:57:29.753Z,9.10
2018-10-07T23:59:58.185Z,9.10
